sensor_id;sensor_type;location;lat;lon;timestamp;P1;durP1;ratioP1;P2;durP2;ratioP2
21046;SDS011;10682;50.874;3.656;2022-10-16T00:01:31;1.60;;;1.10;;
21046;SDS011;10682;50.874;3.656;2022-10-16T00:03:58;2.40;;;1.20;;
21046;SDS011;10682;50.874;3.656;2022-10-16T00:06:27;3.77;;;1.27;;
21046;SDS011;10682;50.874;3.656;2022-10-16T00:08:55;3.87;;;1.53;;
21046;SDS011;10682;50.874;3.656;2022-10-16T00:11:27;4.10;;;1.10;;
21046;SDS011;10682;50.874;3.656;2022-10-16T00:14:03;1.73;;;1.10;;
21046;SDS011;10682;50.874;3.656;2022-10-16T00:16:33;2.90;;;0.90;;
21046;SDS011;10682;50.874;3.656;2022-10-16T00:19:01;4.87;;;1.20;;
21046;SDS011;10682;50.874;3.656;2022-10-16T00:21:29;1.70;;;0.93;;
21046;SDS011;10682;50.874;3.656;2022-10-16T00:23:58;5.57;;;1.20;;
21046;SDS011;10682;50.874;3.656;2022-10-16T00:26:29;1.27;;;1.00;;
21046;SDS011;10682;50.874;3.656;2022-10-16T00:28:58;3.43;;;1.13;;
21046;SDS011;10682;50.874;3.656;2022-10-16T00:31:25;3.10;;;1.17;;
21046;SDS011;10682;50.874;3.656;2022-10-16T00:33:53;4.63;;;1.60;;
21046;SDS011;10682;50.874;3.656;2022-10-16T00:36:21;4.10;;;1.20;;
21046;SDS011;10682;50.874;3.656;2022-10-16T00:38:51;2.57;;;1.50;;
21046;SDS011;10682;50.874;3.656;2022-10-16T00:41:22;5.23;;;1.10;;
21046;SDS011;10682;50.874;3.656;2022-10-16T00:43:52;7.00;;;1.57;;
21046;SDS011;10682;50.874;3.656;2022-10-16T00:49:17;9.00;;;1.47;;
21046;SDS011;10682;50.874;3.656;2022-10-16T00:51:47;5.83;;;1.37;;
21046;SDS011;10682;50.874;3.656;2022-10-16T00:54:19;2.17;;;1.27;;
21046;SDS011;10682;50.874;3.656;2022-10-16T00:56:50;4.30;;;1.40;;
21046;SDS011;10682;50.874;3.656;2022-10-16T00:59:20;3.03;;;1.30;;
21046;SDS011;10682;50.874;3.656;2022-10-16T01:01:54;3.57;;;1.20;;
21046;SDS011;10682;50.874;3.656;2022-10-16T01:04:23;2.33;;;1.10;;
21046;SDS011;10682;50.874;3.656;2022-10-16T01:09:49;2.43;;;1.37;;
21046;SDS011;10682;50.874;3.656;2022-10-16T01:12:38;5.40;;;1.13;;
21046;SDS011;10682;50.874;3.656;2022-10-16T01:15:37;4.47;;;1.20;;
21046;SDS011;10682;50.874;3.656;2022-10-16T01:20:52;4.03;;;1.30;;
21046;SDS011;10682;50.874;3.656;2022-10-16T01:23:29;4.73;;;1.30;;
21046;SDS011;10682;50.874;3.656;2022-10-16T01:29:30;2.03;;;1.23;;
21046;SDS011;10682;50.874;3.656;2022-10-16T01:32:27;3.53;;;1.10;;
21046;SDS011;10682;50.874;3.656;2022-10-16T01:35:05;4.10;;;1.37;;
21046;SDS011;10682;50.874;3.656;2022-10-16T01:37:44;3.20;;;1.33;;
21046;SDS011;10682;50.874;3.656;2022-10-16T01:40:20;4.87;;;1.30;;
21046;SDS011;10682;50.874;3.656;2022-10-16T01:42:52;2.07;;;1.30;;
21046;SDS011;10682;50.874;3.656;2022-10-16T01:45:26;3.60;;;1.43;;
21046;SDS011;10682;50.874;3.656;2022-10-16T01:47:56;3.03;;;1.33;;
21046;SDS011;10682;50.874;3.656;2022-10-16T01:50:26;4.60;;;1.40;;
21046;SDS011;10682;50.874;3.656;2022-10-16T01:52:54;4.67;;;1.60;;
21046;SDS011;10682;50.874;3.656;2022-10-16T01:55:31;4.10;;;1.27;;
21046;SDS011;10682;50.874;3.656;2022-10-16T01:58:03;2.73;;;1.50;;
21046;SDS011;10682;50.874;3.656;2022-10-16T02:00:33;4.87;;;1.80;;
21046;SDS011;10682;50.874;3.656;2022-10-16T02:03:04;3.23;;;1.10;;
21046;SDS011;10682;50.874;3.656;2022-10-16T02:05:45;4.40;;;1.40;;
21046;SDS011;10682;50.874;3.656;2022-10-16T02:08:19;5.70;;;1.40;;
21046;SDS011;10682;50.874;3.656;2022-10-16T02:10:49;3.10;;;1.43;;
21046;SDS011;10682;50.874;3.656;2022-10-16T02:16:11;4.37;;;1.40;;
21046;SDS011;10682;50.874;3.656;2022-10-16T02:18:40;3.20;;;1.40;;
21046;SDS011;10682;50.874;3.656;2022-10-16T02:21:21;3.93;;;1.37;;
21046;SDS011;10682;50.874;3.656;2022-10-16T02:23:57;2.30;;;1.37;;
21046;SDS011;10682;50.874;3.656;2022-10-16T02:26:43;3.90;;;1.60;;
21046;SDS011;10682;50.874;3.656;2022-10-16T02:29:39;3.07;;;1.57;;
21046;SDS011;10682;50.874;3.656;2022-10-16T02:32:12;3.33;;;1.33;;
21046;SDS011;10682;50.874;3.656;2022-10-16T02:34:42;3.20;;;1.30;;
21046;SDS011;10682;50.874;3.656;2022-10-16T02:37:10;4.57;;;1.20;;
21046;SDS011;10682;50.874;3.656;2022-10-16T02:39:38;5.03;;;1.73;;
21046;SDS011;10682;50.874;3.656;2022-10-16T02:42:13;5.93;;;1.93;;
21046;SDS011;10682;50.874;3.656;2022-10-16T02:44:41;2.83;;;1.60;;
21046;SDS011;10682;50.874;3.656;2022-10-16T02:47:08;4.23;;;1.60;;
21046;SDS011;10682;50.874;3.656;2022-10-16T02:49:35;5.83;;;1.50;;
21046;SDS011;10682;50.874;3.656;2022-10-16T02:52:02;6.50;;;1.70;;
21046;SDS011;10682;50.874;3.656;2022-10-16T02:54:29;3.90;;;1.70;;
21046;SDS011;10682;50.874;3.656;2022-10-16T02:56:56;6.60;;;1.90;;
21046;SDS011;10682;50.874;3.656;2022-10-16T02:59:23;5.90;;;1.93;;
21046;SDS011;10682;50.874;3.656;2022-10-16T03:01:50;4.50;;;1.80;;
21046;SDS011;10682;50.874;3.656;2022-10-16T03:04:17;5.37;;;1.97;;
21046;SDS011;10682;50.874;3.656;2022-10-16T03:06:44;7.47;;;2.00;;
21046;SDS011;10682;50.874;3.656;2022-10-16T03:09:10;10.37;;;2.00;;
21046;SDS011;10682;50.874;3.656;2022-10-16T03:11:37;5.03;;;1.73;;
21046;SDS011;10682;50.874;3.656;2022-10-16T03:14:04;3.77;;;1.83;;
21046;SDS011;10682;50.874;3.656;2022-10-16T03:16:31;6.87;;;1.90;;
21046;SDS011;10682;50.874;3.656;2022-10-16T03:18:58;7.23;;;2.07;;
21046;SDS011;10682;50.874;3.656;2022-10-16T03:21:25;6.30;;;2.27;;
21046;SDS011;10682;50.874;3.656;2022-10-16T03:23:52;5.53;;;1.90;;
21046;SDS011;10682;50.874;3.656;2022-10-16T03:26:19;8.07;;;2.23;;
21046;SDS011;10682;50.874;3.656;2022-10-16T03:28:46;8.47;;;2.20;;
21046;SDS011;10682;50.874;3.656;2022-10-16T03:31:13;6.37;;;2.20;;
21046;SDS011;10682;50.874;3.656;2022-10-16T03:33:40;10.97;;;2.43;;
21046;SDS011;10682;50.874;3.656;2022-10-16T03:36:07;7.27;;;2.47;;
21046;SDS011;10682;50.874;3.656;2022-10-16T03:38:33;6.57;;;2.40;;
21046;SDS011;10682;50.874;3.656;2022-10-16T03:41:01;4.30;;;2.43;;
21046;SDS011;10682;50.874;3.656;2022-10-16T03:43:27;5.27;;;2.40;;
21046;SDS011;10682;50.874;3.656;2022-10-16T03:45:54;6.03;;;2.60;;
21046;SDS011;10682;50.874;3.656;2022-10-16T03:48:21;8.17;;;2.67;;
21046;SDS011;10682;50.874;3.656;2022-10-16T03:50:48;9.13;;;2.50;;
21046;SDS011;10682;50.874;3.656;2022-10-16T03:53:16;4.53;;;2.30;;
21046;SDS011;10682;50.874;3.656;2022-10-16T03:55:44;4.33;;;2.47;;
21046;SDS011;10682;50.874;3.656;2022-10-16T03:58:11;6.93;;;2.70;;
21046;SDS011;10682;50.874;3.656;2022-10-16T04:00:41;4.67;;;2.03;;
21046;SDS011;10682;50.874;3.656;2022-10-16T04:03:10;5.07;;;2.30;;
21046;SDS011;10682;50.874;3.656;2022-10-16T04:05:38;10.10;;;2.47;;
21046;SDS011;10682;50.874;3.656;2022-10-16T04:08:06;8.20;;;2.50;;
21046;SDS011;10682;50.874;3.656;2022-10-16T04:10:33;8.67;;;2.60;;
21046;SDS011;10682;50.874;3.656;2022-10-16T04:13:00;4.80;;;2.30;;
21046;SDS011;10682;50.874;3.656;2022-10-16T04:15:27;5.60;;;2.37;;
21046;SDS011;10682;50.874;3.656;2022-10-16T04:17:54;6.90;;;2.70;;
21046;SDS011;10682;50.874;3.656;2022-10-16T04:20:21;5.30;;;2.03;;
21046;SDS011;10682;50.874;3.656;2022-10-16T04:22:47;4.87;;;2.23;;
21046;SDS011;10682;50.874;3.656;2022-10-16T04:25:14;8.23;;;2.30;;
21046;SDS011;10682;50.874;3.656;2022-10-16T04:27:41;5.33;;;2.00;;
21046;SDS011;10682;50.874;3.656;2022-10-16T04:30:11;9.73;;;2.23;;
21046;SDS011;10682;50.874;3.656;2022-10-16T04:32:39;5.57;;;2.13;;
21046;SDS011;10682;50.874;3.656;2022-10-16T04:35:06;5.47;;;1.90;;
21046;SDS011;10682;50.874;3.656;2022-10-16T04:37:34;9.97;;;2.37;;
21046;SDS011;10682;50.874;3.656;2022-10-16T04:40:01;6.70;;;2.10;;
21046;SDS011;10682;50.874;3.656;2022-10-16T04:42:28;4.73;;;2.00;;
21046;SDS011;10682;50.874;3.656;2022-10-16T04:44:55;3.50;;;1.87;;
21046;SDS011;10682;50.874;3.656;2022-10-16T04:47:22;7.10;;;2.47;;
21046;SDS011;10682;50.874;3.656;2022-10-16T04:49:49;6.90;;;2.20;;
21046;SDS011;10682;50.874;3.656;2022-10-16T04:52:16;4.73;;;2.10;;
21046;SDS011;10682;50.874;3.656;2022-10-16T04:54:45;5.23;;;1.70;;
21046;SDS011;10682;50.874;3.656;2022-10-16T04:57:12;4.03;;;2.00;;
21046;SDS011;10682;50.874;3.656;2022-10-16T04:59:39;8.83;;;2.27;;
21046;SDS011;10682;50.874;3.656;2022-10-16T05:02:05;7.90;;;2.47;;
21046;SDS011;10682;50.874;3.656;2022-10-16T05:04:32;5.50;;;1.87;;
21046;SDS011;10682;50.874;3.656;2022-10-16T05:06:59;5.67;;;1.87;;
21046;SDS011;10682;50.874;3.656;2022-10-16T05:09:26;4.57;;;1.87;;
21046;SDS011;10682;50.874;3.656;2022-10-16T05:11:53;8.53;;;2.30;;
21046;SDS011;10682;50.874;3.656;2022-10-16T05:14:20;7.27;;;1.80;;
21046;SDS011;10682;50.874;3.656;2022-10-16T05:16:47;3.17;;;2.03;;
21046;SDS011;10682;50.874;3.656;2022-10-16T05:19:15;5.30;;;1.53;;
21046;SDS011;10682;50.874;3.656;2022-10-16T05:21:57;6.93;;;1.90;;
21046;SDS011;10682;50.874;3.656;2022-10-16T05:24:24;8.70;;;2.53;;
21046;SDS011;10682;50.874;3.656;2022-10-16T05:26:51;5.57;;;1.70;;
21046;SDS011;10682;50.874;3.656;2022-10-16T05:29:18;4.07;;;1.80;;
21046;SDS011;10682;50.874;3.656;2022-10-16T05:31:45;5.87;;;1.90;;
21046;SDS011;10682;50.874;3.656;2022-10-16T05:34:12;6.97;;;1.70;;
21046;SDS011;10682;50.874;3.656;2022-10-16T05:36:39;6.50;;;1.90;;
21046;SDS011;10682;50.874;3.656;2022-10-16T05:39:06;4.37;;;1.93;;
21046;SDS011;10682;50.874;3.656;2022-10-16T05:41:33;6.97;;;1.87;;
21046;SDS011;10682;50.874;3.656;2022-10-16T05:44:00;5.80;;;2.30;;
21046;SDS011;10682;50.874;3.656;2022-10-16T05:46:32;5.73;;;1.80;;
21046;SDS011;10682;50.874;3.656;2022-10-16T05:48:59;7.60;;;2.07;;
21046;SDS011;10682;50.874;3.656;2022-10-16T05:51:26;4.30;;;2.20;;
21046;SDS011;10682;50.874;3.656;2022-10-16T05:53:53;7.27;;;2.40;;
21046;SDS011;10682;50.874;3.656;2022-10-16T05:56:20;2.97;;;2.10;;
21046;SDS011;10682;50.874;3.656;2022-10-16T05:58:47;7.63;;;2.30;;
21046;SDS011;10682;50.874;3.656;2022-10-16T06:01:15;6.80;;;2.30;;
21046;SDS011;10682;50.874;3.656;2022-10-16T06:03:44;7.33;;;2.33;;
21046;SDS011;10682;50.874;3.656;2022-10-16T06:06:15;3.97;;;2.10;;
21046;SDS011;10682;50.874;3.656;2022-10-16T06:08:46;4.50;;;2.03;;
21046;SDS011;10682;50.874;3.656;2022-10-16T06:11:18;6.80;;;2.37;;
21046;SDS011;10682;50.874;3.656;2022-10-16T06:13:51;7.43;;;2.50;;
21046;SDS011;10682;50.874;3.656;2022-10-16T06:16:20;7.57;;;2.10;;
21046;SDS011;10682;50.874;3.656;2022-10-16T06:18:47;5.27;;;2.53;;
21046;SDS011;10682;50.874;3.656;2022-10-16T06:21:16;6.17;;;2.40;;
21046;SDS011;10682;50.874;3.656;2022-10-16T06:23:48;5.67;;;2.20;;
21046;SDS011;10682;50.874;3.656;2022-10-16T06:26:16;6.50;;;2.30;;
21046;SDS011;10682;50.874;3.656;2022-10-16T06:28:46;6.77;;;2.47;;
21046;SDS011;10682;50.874;3.656;2022-10-16T06:31:14;4.20;;;2.13;;
21046;SDS011;10682;50.874;3.656;2022-10-16T06:33:42;4.43;;;2.13;;
21046;SDS011;10682;50.874;3.656;2022-10-16T06:36:13;4.30;;;2.00;;
21046;SDS011;10682;50.874;3.656;2022-10-16T06:38:43;7.33;;;2.53;;
21046;SDS011;10682;50.874;3.656;2022-10-16T06:41:17;6.37;;;1.93;;
21046;SDS011;10682;50.874;3.656;2022-10-16T06:43:47;11.60;;;2.50;;
21046;SDS011;10682;50.874;3.656;2022-10-16T06:46:15;7.00;;;2.30;;
21046;SDS011;10682;50.874;3.656;2022-10-16T06:48:46;6.13;;;2.23;;
21046;SDS011;10682;50.874;3.656;2022-10-16T06:51:20;3.53;;;2.30;;
21046;SDS011;10682;50.874;3.656;2022-10-16T06:53:49;4.37;;;2.17;;
21046;SDS011;10682;50.874;3.656;2022-10-16T06:56:29;8.50;;;2.23;;
21046;SDS011;10682;50.874;3.656;2022-10-16T06:58:58;9.73;;;1.87;;
21046;SDS011;10682;50.874;3.656;2022-10-16T07:01:25;5.70;;;2.03;;
21046;SDS011;10682;50.874;3.656;2022-10-16T07:03:53;10.17;;;2.67;;
21046;SDS011;10682;50.874;3.656;2022-10-16T07:06:21;6.37;;;2.37;;
21046;SDS011;10682;50.874;3.656;2022-10-16T07:08:50;8.63;;;2.30;;
21046;SDS011;10682;50.874;3.656;2022-10-16T07:11:18;6.17;;;1.87;;
21046;SDS011;10682;50.874;3.656;2022-10-16T07:13:48;4.87;;;2.10;;
21046;SDS011;10682;50.874;3.656;2022-10-16T07:16:22;9.03;;;1.90;;
21046;SDS011;10682;50.874;3.656;2022-10-16T07:18:54;4.57;;;1.70;;
21046;SDS011;10682;50.874;3.656;2022-10-16T07:21:28;8.13;;;1.93;;
21046;SDS011;10682;50.874;3.656;2022-10-16T07:24:02;8.47;;;2.00;;
21046;SDS011;10682;50.874;3.656;2022-10-16T07:26:37;5.37;;;1.87;;
21046;SDS011;10682;50.874;3.656;2022-10-16T07:29:19;3.63;;;1.80;;
21046;SDS011;10682;50.874;3.656;2022-10-16T07:31:48;5.07;;;1.63;;
21046;SDS011;10682;50.874;3.656;2022-10-16T07:34:16;8.40;;;2.00;;
21046;SDS011;10682;50.874;3.656;2022-10-16T07:36:47;7.33;;;1.90;;
21046;SDS011;10682;50.874;3.656;2022-10-16T07:39:17;5.70;;;2.10;;
21046;SDS011;10682;50.874;3.656;2022-10-16T07:41:44;7.13;;;1.97;;
21046;SDS011;10682;50.874;3.656;2022-10-16T07:44:11;6.57;;;2.20;;
21046;SDS011;10682;50.874;3.656;2022-10-16T07:46:41;7.77;;;2.00;;
21046;SDS011;10682;50.874;3.656;2022-10-16T07:49:08;4.63;;;2.00;;
21046;SDS011;10682;50.874;3.656;2022-10-16T07:51:37;3.83;;;1.70;;
21046;SDS011;10682;50.874;3.656;2022-10-16T07:54:08;5.67;;;1.47;;
21046;SDS011;10682;50.874;3.656;2022-10-16T07:56:36;5.77;;;1.63;;
21046;SDS011;10682;50.874;3.656;2022-10-16T07:59:08;4.63;;;1.70;;
21046;SDS011;10682;50.874;3.656;2022-10-16T08:01:35;4.17;;;1.60;;
21046;SDS011;10682;50.874;3.656;2022-10-16T08:04:02;3.88;;;1.20;;
21046;SDS011;10682;50.874;3.656;2022-10-16T08:06:34;5.53;;;1.47;;
21046;SDS011;10682;50.874;3.656;2022-10-16T08:09:07;7.45;;;1.63;;
21046;SDS011;10682;50.874;3.656;2022-10-16T08:11:35;4.68;;;1.40;;
21046;SDS011;10682;50.874;3.656;2022-10-16T08:14:03;3.95;;;1.67;;
21046;SDS011;10682;50.874;3.656;2022-10-16T08:16:30;6.30;;;1.52;;
21046;SDS011;10682;50.874;3.656;2022-10-16T08:18:57;5.20;;;1.42;;
21046;SDS011;10682;50.874;3.656;2022-10-16T08:21:24;6.43;;;1.77;;
21046;SDS011;10682;50.874;3.656;2022-10-16T08:23:52;4.85;;;1.42;;
21046;SDS011;10682;50.874;3.656;2022-10-16T08:26:23;5.80;;;1.40;;
21046;SDS011;10682;50.874;3.656;2022-10-16T08:28:51;5.70;;;1.50;;
21046;SDS011;10682;50.874;3.656;2022-10-16T08:31:19;5.15;;;1.30;;
21046;SDS011;10682;50.874;3.656;2022-10-16T08:33:46;5.47;;;1.33;;
21046;SDS011;10682;50.874;3.656;2022-10-16T08:36:14;6.70;;;1.40;;
21046;SDS011;10682;50.874;3.656;2022-10-16T08:38:42;4.47;;;1.37;;
21046;SDS011;10682;50.874;3.656;2022-10-16T08:43:53;4.22;;;1.20;;
21046;SDS011;10682;50.874;3.656;2022-10-16T08:47:02;3.10;;;1.25;;
21046;SDS011;10682;50.874;3.656;2022-10-16T08:50:49;4.97;;;1.58;;
21046;SDS011;10682;50.874;3.656;2022-10-16T08:52:54;8.45;;;1.38;;
21046;SDS011;10682;50.874;3.656;2022-10-16T08:58:13;10.30;;;1.50;;
21046;SDS011;10682;50.874;3.656;2022-10-16T09:00:43;12.93;;;1.40;;
21046;SDS011;10682;50.874;3.656;2022-10-16T09:12:39;8.77;;;1.75;;
21046;SDS011;10682;50.874;3.656;2022-10-16T09:15:53;6.38;;;1.40;;
21046;SDS011;10682;50.874;3.656;2022-10-16T09:18:57;7.13;;;1.10;;
21046;SDS011;10682;50.874;3.656;2022-10-16T09:21:41;9.07;;;1.65;;
21046;SDS011;10682;50.874;3.656;2022-10-16T09:24:21;7.35;;;1.70;;
21046;SDS011;10682;50.874;3.656;2022-10-16T09:26:54;4.82;;;1.40;;
21046;SDS011;10682;50.874;3.656;2022-10-16T09:29:21;7.72;;;1.50;;
21046;SDS011;10682;50.874;3.656;2022-10-16T09:31:52;4.93;;;1.23;;
21046;SDS011;10682;50.874;3.656;2022-10-16T09:34:30;6.00;;;1.30;;
21046;SDS011;10682;50.874;3.656;2022-10-16T09:37:03;5.93;;;1.65;;
21046;SDS011;10682;50.874;3.656;2022-10-16T09:39:45;10.88;;;1.85;;
21046;SDS011;10682;50.874;3.656;2022-10-16T09:42:16;5.53;;;1.40;;
21046;SDS011;10682;50.874;3.656;2022-10-16T09:45:04;7.35;;;1.50;;
21046;SDS011;10682;50.874;3.656;2022-10-16T09:47:31;4.50;;;1.50;;
21046;SDS011;10682;50.874;3.656;2022-10-16T09:50:24;8.80;;;1.58;;
21046;SDS011;10682;50.874;3.656;2022-10-16T09:53:03;5.15;;;1.40;;
21046;SDS011;10682;50.874;3.656;2022-10-16T09:55:47;7.93;;;1.60;;
21046;SDS011;10682;50.874;3.656;2022-10-16T09:58:22;5.65;;;1.20;;
21046;SDS011;10682;50.874;3.656;2022-10-16T10:00:51;9.82;;;1.80;;
21046;SDS011;10682;50.874;3.656;2022-10-16T10:03:39;5.88;;;1.60;;
21046;SDS011;10682;50.874;3.656;2022-10-16T10:06:20;8.75;;;1.90;;
21046;SDS011;10682;50.874;3.656;2022-10-16T10:08:58;7.10;;;2.00;;
21046;SDS011;10682;50.874;3.656;2022-10-16T10:11:41;9.93;;;1.98;;
21046;SDS011;10682;50.874;3.656;2022-10-16T10:14:23;6.32;;;1.80;;
21046;SDS011;10682;50.874;3.656;2022-10-16T10:17:14;9.10;;;1.55;;
21046;SDS011;10682;50.874;3.656;2022-10-16T10:19:49;7.18;;;1.70;;
21046;SDS011;10682;50.874;3.656;2022-10-16T10:22:23;8.05;;;2.00;;
21046;SDS011;10682;50.874;3.656;2022-10-16T10:41:18;5.90;;;1.60;;
21046;SDS011;10682;50.874;3.656;2022-10-16T10:49:31;7.07;;;1.83;;
21046;SDS011;10682;50.874;3.656;2022-10-16T10:58:00;7.43;;;1.80;;
21046;SDS011;10682;50.874;3.656;2022-10-16T11:00:57;8.82;;;1.67;;
21046;SDS011;10682;50.874;3.656;2022-10-16T11:03:42;8.18;;;1.30;;
21046;SDS011;10682;50.874;3.656;2022-10-16T11:09:37;5.07;;;1.30;;
21046;SDS011;10682;50.874;3.656;2022-10-16T11:12:18;8.73;;;1.63;;
21046;SDS011;10682;50.874;3.656;2022-10-16T11:15:01;5.45;;;1.50;;
21046;SDS011;10682;50.874;3.656;2022-10-16T11:18:04;5.65;;;1.23;;
21046;SDS011;10682;50.874;3.656;2022-10-16T11:21:02;7.70;;;1.17;;
21046;SDS011;10682;50.874;3.656;2022-10-16T11:23:39;9.82;;;1.20;;
21046;SDS011;10682;50.874;3.656;2022-10-16T11:26:19;6.43;;;1.08;;
21046;SDS011;10682;50.874;3.656;2022-10-16T11:28:54;3.78;;;1.00;;
21046;SDS011;10682;50.874;3.656;2022-10-16T11:31:30;11.27;;;1.40;;
21046;SDS011;10682;50.874;3.656;2022-10-16T11:36:57;5.85;;;1.50;;
21046;SDS011;10682;50.874;3.656;2022-10-16T11:39:36;4.20;;;1.15;;
21046;SDS011;10682;50.874;3.656;2022-10-16T11:42:13;4.65;;;1.30;;
21046;SDS011;10682;50.874;3.656;2022-10-16T11:47:37;8.60;;;1.40;;
21046;SDS011;10682;50.874;3.656;2022-10-16T11:56:19;6.95;;;1.48;;
21046;SDS011;10682;50.874;3.656;2022-10-16T11:58:56;7.68;;;1.27;;
21046;SDS011;10682;50.874;3.656;2022-10-16T12:01:47;9.45;;;1.40;;
21046;SDS011;10682;50.874;3.656;2022-10-16T12:04:40;5.47;;;1.23;;
21046;SDS011;10682;50.874;3.656;2022-10-16T12:07:47;6.55;;;1.20;;
21046;SDS011;10682;50.874;3.656;2022-10-16T12:10:40;7.35;;;1.27;;
21046;SDS011;10682;50.874;3.656;2022-10-16T12:16:05;3.88;;;1.10;;
21046;SDS011;10682;50.874;3.656;2022-10-16T12:18:44;9.65;;;1.38;;
21046;SDS011;10682;50.874;3.656;2022-10-16T12:21:13;6.70;;;1.25;;
21046;SDS011;10682;50.874;3.656;2022-10-16T12:26:27;6.20;;;1.50;;
21046;SDS011;10682;50.874;3.656;2022-10-16T12:29:12;4.80;;;1.30;;
21046;SDS011;10682;50.874;3.656;2022-10-16T12:31:44;5.10;;;1.10;;
21046;SDS011;10682;50.874;3.656;2022-10-16T12:34:25;5.00;;;1.50;;
21046;SDS011;10682;50.874;3.656;2022-10-16T12:37:08;5.32;;;1.23;;
21046;SDS011;10682;50.874;3.656;2022-10-16T12:39:46;4.78;;;1.25;;
21046;SDS011;10682;50.874;3.656;2022-10-16T12:42:22;4.88;;;1.00;;
21046;SDS011;10682;50.874;3.656;2022-10-16T12:44:54;8.90;;;1.20;;
21046;SDS011;10682;50.874;3.656;2022-10-16T12:49:58;5.75;;;0.90;;
21046;SDS011;10682;50.874;3.656;2022-10-16T12:55:05;4.65;;;1.20;;
21046;SDS011;10682;50.874;3.656;2022-10-16T13:12:16;3.80;;;0.95;;
21046;SDS011;10682;50.874;3.656;2022-10-16T13:15:22;5.65;;;1.50;;
21046;SDS011;10682;50.874;3.656;2022-10-16T13:23:34;2.63;;;0.80;;
21046;SDS011;10682;50.874;3.656;2022-10-16T13:29:16;1.92;;;0.77;;
21046;SDS011;10682;50.874;3.656;2022-10-16T13:31:43;5.68;;;0.95;;
21046;SDS011;10682;50.874;3.656;2022-10-16T13:34:12;4.30;;;1.27;;
21046;SDS011;10682;50.874;3.656;2022-10-16T13:36:50;5.35;;;1.40;;
21046;SDS011;10682;50.874;3.656;2022-10-16T13:39:26;5.82;;;1.15;;
21046;SDS011;10682;50.874;3.656;2022-10-16T13:42:03;2.30;;;1.00;;
21046;SDS011;10682;50.874;3.656;2022-10-16T13:44:48;4.88;;;1.25;;
21046;SDS011;10682;50.874;3.656;2022-10-16T13:47:22;7.25;;;1.30;;
21046;SDS011;10682;50.874;3.656;2022-10-16T13:50:09;5.75;;;1.27;;
21046;SDS011;10682;50.874;3.656;2022-10-16T13:52:42;3.30;;;1.20;;
21046;SDS011;10682;50.874;3.656;2022-10-16T13:55:10;3.80;;;1.17;;
21046;SDS011;10682;50.874;3.656;2022-10-16T13:57:43;3.08;;;1.02;;
21046;SDS011;10682;50.874;3.656;2022-10-16T14:00:21;3.75;;;1.40;;
21046;SDS011;10682;50.874;3.656;2022-10-16T14:02:58;2.78;;;1.15;;
21046;SDS011;10682;50.874;3.656;2022-10-16T14:05:33;3.10;;;1.05;;
21046;SDS011;10682;50.874;3.656;2022-10-16T14:08:01;2.47;;;1.00;;
21046;SDS011;10682;50.874;3.656;2022-10-16T14:10:31;3.22;;;1.10;;
21046;SDS011;10682;50.874;3.656;2022-10-16T14:13:00;4.82;;;1.02;;
21046;SDS011;10682;50.874;3.656;2022-10-16T14:15:32;5.13;;;0.93;;
21046;SDS011;10682;50.874;3.656;2022-10-16T14:18:01;2.78;;;1.00;;
21046;SDS011;10682;50.874;3.656;2022-10-16T14:20:30;4.05;;;1.13;;
21046;SDS011;10682;50.874;3.656;2022-10-16T14:23:01;4.45;;;1.00;;
21046;SDS011;10682;50.874;3.656;2022-10-16T14:26:06;2.75;;;0.95;;
21046;SDS011;10682;50.874;3.656;2022-10-16T14:28:41;6.78;;;1.08;;
21046;SDS011;10682;50.874;3.656;2022-10-16T14:33:56;4.03;;;0.98;;
21046;SDS011;10682;50.874;3.656;2022-10-16T14:36:25;5.68;;;1.00;;
21046;SDS011;10682;50.874;3.656;2022-10-16T14:39:17;3.10;;;0.93;;
21046;SDS011;10682;50.874;3.656;2022-10-16T14:41:48;5.43;;;1.30;;
21046;SDS011;10682;50.874;3.656;2022-10-16T14:44:17;4.53;;;1.25;;
21046;SDS011;10682;50.874;3.656;2022-10-16T14:46:45;7.95;;;1.10;;
21046;SDS011;10682;50.874;3.656;2022-10-16T14:51:43;3.13;;;1.02;;
21046;SDS011;10682;50.874;3.656;2022-10-16T14:54:15;5.82;;;1.10;;
21046;SDS011;10682;50.874;3.656;2022-10-16T14:56:46;3.97;;;1.10;;
21046;SDS011;10682;50.874;3.656;2022-10-16T14:59:22;3.90;;;1.02;;
21046;SDS011;10682;50.874;3.656;2022-10-16T15:01:54;4.10;;;1.10;;
21046;SDS011;10682;50.874;3.656;2022-10-16T15:04:20;4.65;;;1.05;;
21046;SDS011;10682;50.874;3.656;2022-10-16T15:06:47;6.68;;;1.45;;
21046;SDS011;10682;50.874;3.656;2022-10-16T15:09:14;8.10;;;1.33;;
21046;SDS011;10682;50.874;3.656;2022-10-16T15:11:41;4.10;;;1.50;;
21046;SDS011;10682;50.874;3.656;2022-10-16T15:14:12;6.93;;;1.90;;
21046;SDS011;10682;50.874;3.656;2022-10-16T15:16:44;4.93;;;1.75;;
21046;SDS011;10682;50.874;3.656;2022-10-16T15:19:12;4.05;;;1.50;;
21046;SDS011;10682;50.874;3.656;2022-10-16T15:21:38;6.38;;;1.27;;
21046;SDS011;10682;50.874;3.656;2022-10-16T15:24:08;2.72;;;1.13;;
21046;SDS011;10682;50.874;3.656;2022-10-16T15:26:44;4.75;;;1.52;;
21046;SDS011;10682;50.874;3.656;2022-10-16T15:29:15;3.63;;;1.25;;
21046;SDS011;10682;50.874;3.656;2022-10-16T15:31:42;4.55;;;1.00;;
21046;SDS011;10682;50.874;3.656;2022-10-16T15:34:09;6.32;;;1.30;;
21046;SDS011;10682;50.874;3.656;2022-10-16T15:36:37;5.43;;;1.13;;
21046;SDS011;10682;50.874;3.656;2022-10-16T15:39:06;3.90;;;1.08;;
21046;SDS011;10682;50.874;3.656;2022-10-16T15:41:42;4.85;;;1.58;;
21046;SDS011;10682;50.874;3.656;2022-10-16T15:44:10;10.35;;;1.77;;
21046;SDS011;10682;50.874;3.656;2022-10-16T15:46:37;10.55;;;1.58;;
21046;SDS011;10682;50.874;3.656;2022-10-16T15:49:04;4.95;;;1.38;;
21046;SDS011;10682;50.874;3.656;2022-10-16T15:51:31;5.45;;;1.48;;
21046;SDS011;10682;50.874;3.656;2022-10-16T15:53:59;5.57;;;1.95;;
21046;SDS011;10682;50.874;3.656;2022-10-16T15:56:28;5.65;;;1.73;;
21046;SDS011;10682;50.874;3.656;2022-10-16T15:58:56;8.18;;;1.77;;
21046;SDS011;10682;50.874;3.656;2022-10-16T16:01:24;6.07;;;1.65;;
21046;SDS011;10682;50.874;3.656;2022-10-16T16:03:55;6.40;;;1.70;;
21046;SDS011;10682;50.874;3.656;2022-10-16T16:06:22;4.13;;;1.70;;
21046;SDS011;10682;50.874;3.656;2022-10-16T16:08:50;3.67;;;1.70;;
21046;SDS011;10682;50.874;3.656;2022-10-16T16:11:18;5.00;;;1.67;;
21046;SDS011;10682;50.874;3.656;2022-10-16T16:13:46;5.53;;;1.52;;
21046;SDS011;10682;50.874;3.656;2022-10-16T16:16:15;5.43;;;1.60;;
21046;SDS011;10682;50.874;3.656;2022-10-16T16:18:44;4.43;;;1.55;;
21046;SDS011;10682;50.874;3.656;2022-10-16T16:21:11;5.32;;;1.80;;
21046;SDS011;10682;50.874;3.656;2022-10-16T16:23:39;6.55;;;1.80;;
21046;SDS011;10682;50.874;3.656;2022-10-16T16:26:11;9.30;;;1.80;;
21046;SDS011;10682;50.874;3.656;2022-10-16T16:28:46;4.75;;;2.00;;
21046;SDS011;10682;50.874;3.656;2022-10-16T16:31:13;7.00;;;1.83;;
21046;SDS011;10682;50.874;3.656;2022-10-16T16:33:40;5.88;;;2.03;;
21046;SDS011;10682;50.874;3.656;2022-10-16T16:36:07;4.20;;;1.70;;
21046;SDS011;10682;50.874;3.656;2022-10-16T16:38:40;3.20;;;1.38;;
21046;SDS011;10682;50.874;3.656;2022-10-16T16:41:11;3.85;;;1.60;;
21046;SDS011;10682;50.874;3.656;2022-10-16T16:43:53;4.13;;;1.50;;
21046;SDS011;10682;50.874;3.656;2022-10-16T16:46:21;4.65;;;1.80;;
21046;SDS011;10682;50.874;3.656;2022-10-16T16:48:48;6.68;;;1.83;;
21046;SDS011;10682;50.874;3.656;2022-10-16T16:51:21;4.80;;;2.13;;
21046;SDS011;10682;50.874;3.656;2022-10-16T16:53:49;9.32;;;2.40;;
21046;SDS011;10682;50.874;3.656;2022-10-16T16:56:19;6.28;;;1.88;;
21046;SDS011;10682;50.874;3.656;2022-10-16T16:58:49;5.25;;;1.80;;
21046;SDS011;10682;50.874;3.656;2022-10-16T17:01:18;4.97;;;2.05;;
21046;SDS011;10682;50.874;3.656;2022-10-16T17:03:47;4.45;;;2.13;;
21046;SDS011;10682;50.874;3.656;2022-10-16T17:06:22;6.13;;;2.08;;
21046;SDS011;10682;50.874;3.656;2022-10-16T17:08:57;3.58;;;2.13;;
21046;SDS011;10682;50.874;3.656;2022-10-16T17:11:27;4.57;;;2.40;;